Deerfield, Illinois
Current Conditions -  °F | °C
As of 2:52 AM on Saturday 01 Nov 2014 (Local Time) from KPWK Reporting Station
Overcast Overcast  
Wind Chill: 28°   Ceiling: 3700
Heat Index: 36°   Visibility: 10mi
Dew Point: 22°   Wind: 13mph
Humidity: 57%   Direction: 340°NNW
Pressure: 30.37"   Gusts: 20mph
Location:  42.17°N, 87.85°W
Report Text: KPWK 010752Z AUTO 34011G17KT 10SM OVC037 02/M06 A3037 RMK AO2 SLP290 T00221056
Loading
Personal Weather Stations






























Interactive Weather Map
Tropical Storm Tracking
New forecast layout! Learn more

10-Day Weather Forecast

Advertisements
Track Severe Weather on mobile